createdAt,value
2022-08-26T00:01:53.979Z,24.90
2022-08-26T00:04:23.531Z,24.90
2022-08-26T00:06:50.804Z,24.90
2022-08-26T00:09:17.791Z,24.80
2022-08-26T00:11:45.868Z,24.80
2022-08-26T00:14:14.164Z,24.80
2022-08-26T00:16:47.536Z,24.70
2022-08-26T00:19:20.305Z,24.70
2022-08-26T00:21:48.704Z,24.60
2022-08-26T00:24:18.328Z,24.60
2022-08-26T00:26:45.328Z,24.50
2022-08-26T00:29:13.628Z,24.50
2022-08-26T00:31:41.939Z,24.50
2022-08-26T00:34:11.276Z,24.40
2022-08-26T00:36:39.787Z,24.40
2022-08-26T00:39:08.235Z,24.40
2022-08-26T00:41:38.202Z,24.20
2022-08-26T00:44:05.658Z,24.40
2022-08-26T00:46:36.909Z,24.40
2022-08-26T00:49:17.627Z,24.30
2022-08-26T00:51:50.680Z,24.30
2022-08-26T00:54:20.055Z,24.30
2022-08-26T00:56:53.843Z,24.30
2022-08-26T00:59:22.568Z,24.30
2022-08-26T01:01:49.739Z,24.30
2022-08-26T01:04:20.290Z,24.30
2022-08-26T01:06:49.594Z,24.30
2022-08-26T01:09:17.847Z,24.30
2022-08-26T01:11:46.894Z,24.20
2022-08-26T01:14:14.199Z,24.20
2022-08-26T01:16:42.359Z,24.20
2022-08-26T01:19:31.693Z,24.20
2022-08-26T01:22:17.444Z,24.10
2022-08-26T01:24:44.569Z,24.20
2022-08-26T01:27:14.466Z,24.10
2022-08-26T01:29:43.939Z,24.10
2022-08-26T01:32:14.632Z,24.00
2022-08-26T01:34:41.937Z,24.10
2022-08-26T01:37:21.793Z,24.10
2022-08-26T01:39:53.389Z,24.10
2022-08-26T01:42:24.421Z,24.10
2022-08-26T01:45:01.016Z,24.10
2022-08-26T01:47:30.704Z,24.20
2022-08-26T01:50:01.608Z,24.10
2022-08-26T01:52:32.700Z,24.10
2022-08-26T01:54:59.655Z,24.10
2022-08-26T01:57:27.955Z,24.10
2022-08-26T01:59:59.829Z,24.10
2022-08-26T02:02:27.170Z,24.10
2022-08-26T02:04:59.609Z,24.00
2022-08-26T02:07:27.936Z,24.10
2022-08-26T02:09:55.194Z,24.10
2022-08-26T02:15:18.076Z,24.00
2022-08-26T02:17:48.534Z,24.10
2022-08-26T02:20:21.571Z,24.10
2022-08-26T02:22:48.685Z,24.00
2022-08-26T02:25:24.058Z,24.00
2022-08-26T02:27:51.683Z,24.00
2022-08-26T02:30:22.641Z,24.00
2022-08-26T02:32:49.842Z,24.00
2022-08-26T02:35:20.183Z,24.00
2022-08-26T02:37:49.313Z,24.00
2022-08-26T02:40:21.433Z,24.00
2022-08-26T02:42:49.371Z,23.90
2022-08-26T02:45:23.266Z,23.90
2022-08-26T02:47:51.728Z,23.90
2022-08-26T02:50:20.419Z,23.90
2022-08-26T02:52:48.444Z,23.80
2022-08-26T02:55:16.037Z,23.80
2022-08-26T02:57:43.210Z,23.80
2022-08-26T03:00:14.708Z,23.80
2022-08-26T03:02:42.090Z,23.70
2022-08-26T03:05:10.172Z,23.80
2022-08-26T03:07:37.448Z,23.80
2022-08-26T03:10:08.429Z,23.70
2022-08-26T03:12:37.031Z,23.70
2022-08-26T03:15:17.546Z,23.80
2022-08-26T03:17:46.828Z,23.70
2022-08-26T03:20:15.539Z,23.70
2022-08-26T03:22:43.069Z,23.70
2022-08-26T03:25:12.800Z,23.60
2022-08-26T03:27:40.347Z,23.50
2022-08-26T03:30:30.745Z,23.50
2022-08-26T03:32:58.123Z,23.50
2022-08-26T03:35:25.795Z,23.60
2022-08-26T03:37:53.955Z,23.50
2022-08-26T03:40:22.003Z,23.50
2022-08-26T03:42:49.469Z,23.50
2022-08-26T03:45:18.452Z,23.50
2022-08-26T03:47:47.157Z,23.50
2022-08-26T03:50:17.125Z,23.50
2022-08-26T03:52:51.587Z,23.50
2022-08-26T03:55:20.356Z,23.50
2022-08-26T03:57:51.435Z,23.50
2022-08-26T04:00:19.749Z,23.50
2022-08-26T04:02:48.957Z,23.50
2022-08-26T04:05:18.088Z,23.50
2022-08-26T04:07:45.900Z,23.50
2022-08-26T04:10:15.651Z,23.50
2022-08-26T04:12:47.708Z,23.50
2022-08-26T04:15:16.100Z,23.50
2022-08-26T04:17:45.396Z,23.50
2022-08-26T04:20:14.034Z,23.40
2022-08-26T04:22:43.464Z,23.50
2022-08-26T04:25:11.408Z,23.50
2022-08-26T04:27:38.525Z,23.50
2022-08-26T04:30:09.091Z,23.50
2022-08-26T04:32:37.626Z,23.50
2022-08-26T04:35:06.480Z,23.40
2022-08-26T04:37:33.725Z,23.40
2022-08-26T04:40:00.666Z,23.40
2022-08-26T04:42:29.596Z,23.40
2022-08-26T04:44:57.047Z,23.40
2022-08-26T04:47:27.160Z,23.40
2022-08-26T04:49:58.027Z,23.40
2022-08-26T04:52:25.032Z,23.40
2022-08-26T04:54:52.559Z,23.40
2022-08-26T04:57:19.422Z,23.40
2022-08-26T04:59:46.359Z,23.40
2022-08-26T05:02:16.443Z,23.40
2022-08-26T05:04:43.736Z,23.40
2022-08-26T05:07:11.054Z,23.40
2022-08-26T05:09:40.415Z,23.40
2022-08-26T05:12:08.069Z,23.40
2022-08-26T05:14:36.300Z,23.40
2022-08-26T05:17:04.153Z,23.40
2022-08-26T05:19:31.853Z,23.40
2022-08-26T05:22:00.073Z,23.40
2022-08-26T05:24:27.676Z,23.50
2022-08-26T05:26:56.577Z,23.40
2022-08-26T05:29:23.968Z,23.50
2022-08-26T05:31:52.469Z,23.40
2022-08-26T05:34:20.850Z,23.50
2022-08-26T05:36:48.205Z,23.40
2022-08-26T05:39:15.397Z,23.50
2022-08-26T05:41:44.836Z,23.50
2022-08-26T05:44:14.267Z,23.50
2022-08-26T05:46:42.397Z,23.60
2022-08-26T05:49:13.151Z,23.60
2022-08-26T05:51:41.777Z,23.60
2022-08-26T05:54:10.405Z,23.60
2022-08-26T05:56:38.098Z,23.70
2022-08-26T05:59:05.262Z,23.70
2022-08-26T06:01:35.745Z,23.70
2022-08-26T06:04:03.394Z,23.80
2022-08-26T06:06:33.176Z,23.40
2022-08-26T06:09:03.836Z,23.80
2022-08-26T06:11:32.501Z,23.80
2022-08-26T06:14:04.376Z,23.80
2022-08-26T06:16:34.720Z,23.80
2022-08-26T06:19:03.318Z,23.90
2022-08-26T06:21:33.065Z,23.90
2022-08-26T06:24:22.147Z,23.90
2022-08-26T06:27:04.243Z,24.00
2022-08-26T06:29:33.643Z,24.00
2022-08-26T06:32:02.670Z,24.00
2022-08-26T06:34:30.643Z,24.00
2022-08-26T06:37:01.277Z,24.00
2022-08-26T06:39:30.638Z,24.10
2022-08-26T06:41:59.253Z,24.10
2022-08-26T06:44:26.865Z,24.00
2022-08-26T06:46:54.100Z,24.10
2022-08-26T06:49:27.175Z,24.20
2022-08-26T06:51:58.337Z,24.20
2022-08-26T06:54:26.473Z,24.20
2022-08-26T06:56:53.715Z,24.20
2022-08-26T06:59:21.797Z,24.30
2022-08-26T07:01:49.777Z,24.40
2022-08-26T07:04:20.267Z,24.40
2022-08-26T07:06:52.995Z,24.40
2022-08-26T07:09:23.091Z,24.50
2022-08-26T07:11:51.472Z,24.60
2022-08-26T07:14:19.359Z,24.60
2022-08-26T07:16:52.019Z,24.60
2022-08-26T07:19:30.566Z,24.70
2022-08-26T07:22:01.841Z,24.70
2022-08-26T07:24:29.756Z,24.80
2022-08-26T07:27:02.861Z,24.80
2022-08-26T07:29:30.291Z,24.80
2022-08-26T07:31:57.725Z,25.00
2022-08-26T07:34:25.426Z,25.00
2022-08-26T07:36:53.750Z,25.10
2022-08-26T07:39:22.780Z,25.10
2022-08-26T07:41:49.947Z,25.10
2022-08-26T07:44:17.666Z,25.20
2022-08-26T07:46:52.200Z,25.50
2022-08-26T07:49:22.716Z,25.30
2022-08-26T07:51:50.488Z,25.40
2022-08-26T07:54:17.601Z,25.50
2022-08-26T07:56:47.025Z,25.50
2022-08-26T07:59:15.775Z,25.60
2022-08-26T08:01:44.658Z,25.60
2022-08-26T08:04:13.871Z,25.70
2022-08-26T08:06:41.119Z,25.70
2022-08-26T08:09:13.726Z,25.70
2022-08-26T08:11:43.058Z,25.80
2022-08-26T08:14:11.742Z,25.80
2022-08-26T08:16:45.810Z,25.90
2022-08-26T08:19:15.407Z,25.90
2022-08-26T08:21:43.964Z,26.00
2022-08-26T08:24:11.685Z,26.10
2022-08-26T08:26:39.163Z,26.20
2022-08-26T08:29:08.836Z,26.30
2022-08-26T08:31:56.561Z,26.40
2022-08-26T08:34:28.931Z,26.50
2022-08-26T08:36:57.193Z,26.60
2022-08-26T08:39:25.294Z,26.60
2022-08-26T08:42:30.293Z,26.60
2022-08-26T08:44:59.490Z,26.70
2022-08-26T08:47:36.015Z,26.80
2022-08-26T08:50:25.710Z,26.80
2022-08-26T08:53:12.161Z,26.90
2022-08-26T08:56:12.344Z,27.00
2022-08-26T08:58:51.635Z,27.10
2022-08-26T09:01:24.769Z,27.20
2022-08-26T09:04:17.369Z,27.20
2022-08-26T09:06:47.919Z,27.10
2022-08-26T09:09:30.885Z,27.30
2022-08-26T09:11:58.773Z,27.30
2022-08-26T09:14:25.996Z,27.40
2022-08-26T09:17:04.728Z,27.40
2022-08-26T09:19:47.815Z,27.40
2022-08-26T09:22:48.905Z,27.50
2022-08-26T09:25:38.686Z,27.50
2022-08-26T09:28:26.946Z,27.60
2022-08-26T09:31:25.659Z,27.60
2022-08-26T09:34:25.544Z,27.80
2022-08-26T09:36:59.251Z,27.80
2022-08-26T09:39:43.108Z,27.90
2022-08-26T09:42:43.233Z,28.00
2022-08-26T09:45:17.030Z,28.10
2022-08-26T09:47:57.111Z,28.10
2022-08-26T09:50:39.815Z,28.30
2022-08-26T09:53:17.926Z,28.30
2022-08-26T09:55:55.193Z,28.50
2022-08-26T09:58:35.361Z,28.60
2022-08-26T10:01:14.878Z,28.60
2022-08-26T10:03:43.141Z,28.70
2022-08-26T10:06:20.951Z,28.80
2022-08-26T10:08:52.028Z,28.70
2022-08-26T10:11:50.817Z,28.90
2022-08-26T10:14:49.057Z,28.90
2022-08-26T10:17:16.304Z,29.00
2022-08-26T10:19:56.814Z,29.10
2022-08-26T10:22:40.738Z,29.20
2022-08-26T10:25:13.039Z,29.20
2022-08-26T10:27:52.646Z,29.30
2022-08-26T10:30:22.887Z,29.40
2022-08-26T10:33:01.252Z,29.40
2022-08-26T10:35:30.712Z,29.40
2022-08-26T10:38:08.157Z,29.50
2022-08-26T10:40:41.108Z,29.50
2022-08-26T10:43:15.713Z,29.60
2022-08-26T10:45:54.765Z,29.60
2022-08-26T10:48:35.309Z,29.60
2022-08-26T10:51:04.216Z,29.50
2022-08-26T10:53:32.659Z,29.60
2022-08-26T10:56:05.850Z,29.70
2022-08-26T10:59:15.404Z,29.80
2022-08-26T11:01:54.608Z,29.90
2022-08-26T11:04:48.141Z,30.00
2022-08-26T11:07:36.745Z,30.10
2022-08-26T11:10:06.892Z,30.20
2022-08-26T11:12:37.309Z,30.40
2022-08-26T11:15:33.561Z,30.50
2022-08-26T11:18:02.534Z,30.60
2022-08-26T11:20:36.223Z,30.60
2022-08-26T11:23:25.116Z,30.70
2022-08-26T11:26:10.033Z,30.70
2022-08-26T11:28:44.520Z,30.80
2022-08-26T11:31:14.579Z,30.80
2022-08-26T11:33:46.916Z,30.90
2022-08-26T11:36:32.693Z,31.00
2022-08-26T11:39:02.669Z,31.00
2022-08-26T11:41:31.335Z,31.00
2022-08-26T11:43:59.564Z,31.10
2022-08-26T11:46:35.800Z,31.10
2022-08-26T11:49:08.652Z,31.20
2022-08-26T11:51:40.373Z,31.30
2022-08-26T11:54:13.217Z,31.40
2022-08-26T11:56:40.776Z,31.60
2022-08-26T11:59:10.011Z,31.70
2022-08-26T12:01:41.881Z,31.90
2022-08-26T12:04:11.675Z,32.00
2022-08-26T12:06:45.269Z,32.20
2022-08-26T12:09:35.622Z,32.30
2022-08-26T12:12:13.631Z,32.40
2022-08-26T12:14:41.147Z,32.60
2022-08-26T12:17:09.901Z,32.60
2022-08-26T12:19:37.005Z,32.80
2022-08-26T12:22:08.902Z,32.90
2022-08-26T12:24:35.921Z,33.00
2022-08-26T12:27:21.636Z,33.10
2022-08-26T12:30:04.719Z,33.30
2022-08-26T12:32:35.194Z,33.30
2022-08-26T12:35:10.472Z,33.40
2022-08-26T12:37:41.291Z,33.40
2022-08-26T12:40:29.948Z,33.50
2022-08-26T12:43:00.244Z,33.50
2022-08-26T12:45:29.982Z,33.50
2022-08-26T12:48:01.774Z,33.60
2022-08-26T12:50:33.850Z,33.60
2022-08-26T12:53:02.777Z,33.60
2022-08-26T12:55:32.512Z,33.60
2022-08-26T12:58:29.971Z,33.60
2022-08-26T13:01:09.283Z,33.50
2022-08-26T13:03:45.675Z,33.30
2022-08-26T13:06:29.489Z,33.20
2022-08-26T13:09:01.030Z,33.10
2022-08-26T13:11:27.880Z,33.00
2022-08-26T13:13:59.775Z,32.90
2022-08-26T13:16:27.243Z,32.80
2022-08-26T13:18:55.731Z,32.80
2022-08-26T13:21:24.444Z,32.70
2022-08-26T13:23:51.559Z,32.60
2022-08-26T13:26:18.791Z,32.50
2022-08-26T13:28:45.726Z,32.40
2022-08-26T13:31:29.489Z,32.40
2022-08-26T13:33:57.059Z,32.30
2022-08-26T13:36:24.263Z,32.30
2022-08-26T13:38:51.940Z,32.30
2022-08-26T13:41:29.148Z,32.30
2022-08-26T13:43:56.529Z,32.40
2022-08-26T13:46:24.473Z,32.50
2022-08-26T13:48:51.616Z,32.80
2022-08-26T13:51:20.343Z,32.80
2022-08-26T13:53:47.252Z,32.90
2022-08-26T13:56:14.069Z,33.00
2022-08-26T13:58:41.325Z,33.20
2022-08-26T14:01:09.153Z,33.50
2022-08-26T14:03:36.331Z,33.90
2022-08-26T14:06:03.199Z,33.90
2022-08-26T14:08:30.716Z,34.10
2022-08-26T14:10:57.498Z,34.30
2022-08-26T14:13:24.491Z,34.40
2022-08-26T14:15:51.975Z,34.60
2022-08-26T14:18:21.242Z,34.80
2022-08-26T14:20:50.784Z,34.90
2022-08-26T14:23:19.082Z,35.10
2022-08-26T14:25:46.060Z,35.20
2022-08-26T14:28:12.998Z,35.40
2022-08-26T14:30:43.787Z,35.10
2022-08-26T14:33:11.939Z,35.70
2022-08-26T14:35:39.263Z,35.90
2022-08-26T14:38:06.343Z,36.00
2022-08-26T14:40:34.038Z,36.20
2022-08-26T14:43:05.455Z,36.30
2022-08-26T14:45:34.773Z,36.30
2022-08-26T14:48:01.946Z,36.50
2022-08-26T14:50:28.799Z,36.60
2022-08-26T14:53:14.496Z,36.60
2022-08-26T14:55:42.123Z,36.70
2022-08-26T14:58:10.028Z,36.80
2022-08-26T15:00:37.820Z,36.90
2022-08-26T15:03:05.192Z,36.60
2022-08-26T15:05:33.072Z,37.00
2022-08-26T15:08:00.454Z,36.90
2022-08-26T15:10:27.406Z,37.00
2022-08-26T15:12:54.204Z,37.10
2022-08-26T15:15:21.084Z,37.10
2022-08-26T15:17:50.875Z,37.30
2022-08-26T15:20:17.885Z,37.30
2022-08-26T15:22:44.795Z,37.20
2022-08-26T15:25:12.135Z,37.30
2022-08-26T15:27:38.994Z,37.30
2022-08-26T15:30:07.187Z,37.30
2022-08-26T15:32:34.031Z,37.30
2022-08-26T15:35:03.521Z,37.30
2022-08-26T15:37:32.595Z,37.20
2022-08-26T15:39:59.447Z,37.10
2022-08-26T15:42:26.362Z,36.80
2022-08-26T15:44:53.179Z,36.70
2022-08-26T15:47:20.251Z,36.60
2022-08-26T15:49:47.174Z,36.70
2022-08-26T15:52:16.275Z,36.80
2022-08-26T15:54:43.096Z,36.80
2022-08-26T15:57:12.320Z,36.80
2022-08-26T15:59:40.448Z,36.90
2022-08-26T16:02:07.756Z,37.00
2022-08-26T16:04:34.854Z,37.00
2022-08-26T16:07:01.801Z,37.00
2022-08-26T16:09:30.215Z,37.00
2022-08-26T16:11:58.187Z,37.00
2022-08-26T16:14:25.097Z,37.10
2022-08-26T16:16:52.065Z,37.10
2022-08-26T16:19:19.049Z,37.10
2022-08-26T16:21:46.720Z,37.10
2022-08-26T16:24:13.778Z,37.10
2022-08-26T16:26:41.586Z,37.10
2022-08-26T16:29:09.981Z,37.10
2022-08-26T16:31:38.395Z,37.00
2022-08-26T16:34:06.261Z,37.00
2022-08-26T16:36:33.443Z,36.90
2022-08-26T16:39:00.246Z,37.00
2022-08-26T16:41:29.029Z,36.80
2022-08-26T16:43:56.151Z,36.70
2022-08-26T16:46:25.697Z,36.60
2022-08-26T16:48:53.839Z,36.50
2022-08-26T16:51:23.036Z,36.40
2022-08-26T16:53:50.655Z,36.20
2022-08-26T16:56:18.728Z,36.00
2022-08-26T16:58:48.121Z,36.00
2022-08-26T17:01:15.719Z,35.80
2022-08-26T17:03:42.600Z,35.60
2022-08-26T17:06:09.621Z,35.40
2022-08-26T17:08:37.465Z,35.00
2022-08-26T17:11:04.316Z,34.90
2022-08-26T17:13:35.175Z,34.60
2022-08-26T17:16:05.357Z,34.40
2022-08-26T17:18:33.416Z,34.10
2022-08-26T17:21:01.538Z,33.90
2022-08-26T17:23:28.383Z,33.70
2022-08-26T17:25:55.221Z,33.50
2022-08-26T17:28:22.007Z,33.60
2022-08-26T17:30:48.953Z,33.20
2022-08-26T17:33:17.226Z,33.10
2022-08-26T17:35:49.170Z,32.90
2022-08-26T17:38:16.017Z,32.80
2022-08-26T17:40:42.875Z,32.70
2022-08-26T17:43:12.346Z,32.70
2022-08-26T17:45:40.342Z,32.50
2022-08-26T17:48:07.279Z,32.40
2022-08-26T17:50:34.196Z,32.40
2022-08-26T17:53:01.004Z,32.40
2022-08-26T17:55:28.001Z,32.20
2022-08-26T17:57:54.959Z,32.20
2022-08-26T18:00:23.357Z,32.10
2022-08-26T18:02:50.217Z,32.00
2022-08-26T18:05:17.866Z,31.90
2022-08-26T18:07:44.926Z,31.90
2022-08-26T18:10:13.519Z,31.60
2022-08-26T18:12:41.695Z,31.70
2022-08-26T18:15:09.648Z,31.70
2022-08-26T18:17:39.072Z,31.60
2022-08-26T18:20:10.324Z,31.50
2022-08-26T18:22:37.135Z,31.40
2022-08-26T18:25:05.054Z,31.30
2022-08-26T18:27:32.174Z,31.30
2022-08-26T18:29:58.988Z,31.20
2022-08-26T18:32:25.827Z,31.20
2022-08-26T18:34:53.309Z,31.10
2022-08-26T18:37:20.225Z,31.00
2022-08-26T18:39:47.037Z,31.00
2022-08-26T18:42:14.124Z,30.80
2022-08-26T18:44:41.001Z,30.90
2022-08-26T18:47:08.003Z,30.70
2022-08-26T18:49:35.038Z,30.60
2022-08-26T18:52:02.325Z,30.60
2022-08-26T18:54:30.043Z,30.30
2022-08-26T18:56:57.038Z,30.40
2022-08-26T18:59:26.771Z,30.40
2022-08-26T19:01:58.344Z,30.30
2022-08-26T19:04:25.778Z,30.30
2022-08-26T19:06:53.304Z,30.20
2022-08-26T19:09:20.960Z,30.10
2022-08-26T19:11:49.657Z,30.10
2022-08-26T19:14:17.451Z,30.00
2022-08-26T19:16:46.171Z,30.00
2022-08-26T19:19:13.390Z,29.80
2022-08-26T19:21:40.562Z,29.80
2022-08-26T19:24:09.417Z,29.80
2022-08-26T19:26:36.738Z,29.80
2022-08-26T19:29:03.773Z,29.70
2022-08-26T19:31:31.299Z,29.60
2022-08-26T19:33:59.121Z,29.70
2022-08-26T19:36:26.715Z,29.60
2022-08-26T19:38:54.113Z,29.50
2022-08-26T19:41:24.573Z,29.50
2022-08-26T19:43:58.817Z,29.40
2022-08-26T19:46:26.670Z,29.40
2022-08-26T19:48:55.727Z,29.30
2022-08-26T19:51:24.528Z,29.30
2022-08-26T19:53:52.043Z,29.30
2022-08-26T19:56:19.251Z,29.20
2022-08-26T19:58:48.720Z,29.20
2022-08-26T20:01:16.437Z,29.20
2022-08-26T20:03:43.972Z,29.40
2022-08-26T20:06:14.881Z,29.10
2022-08-26T20:08:42.934Z,29.10
2022-08-26T20:11:12.758Z,29.00
2022-08-26T20:13:39.936Z,28.90
2022-08-26T20:16:07.353Z,28.90
2022-08-26T20:18:53.143Z,28.80
2022-08-26T20:21:26.320Z,28.80
2022-08-26T20:23:54.690Z,28.70
2022-08-26T20:26:21.518Z,28.70
2022-08-26T20:28:48.347Z,28.70
2022-08-26T20:31:19.798Z,28.70
2022-08-26T20:33:46.972Z,28.60
2022-08-26T20:36:15.120Z,28.60
2022-08-26T20:38:42.164Z,28.60
2022-08-26T20:41:09.104Z,28.50
2022-08-26T20:43:35.998Z,28.50
2022-08-26T20:46:04.797Z,28.50
2022-08-26T20:48:37.651Z,28.70
2022-08-26T20:51:05.648Z,28.50
2022-08-26T20:53:34.083Z,28.40
2022-08-26T20:56:06.252Z,28.30
2022-08-26T20:58:33.036Z,28.40
2022-08-26T21:01:02.942Z,28.30
2022-08-26T21:03:33.229Z,28.20
2022-08-26T21:06:00.054Z,28.30
2022-08-26T21:08:27.370Z,28.20
2022-08-26T21:10:54.527Z,28.20
2022-08-26T21:13:22.841Z,28.10
2022-08-26T21:15:49.608Z,28.10
2022-08-26T21:18:16.503Z,28.00
2022-08-26T21:20:43.321Z,28.00
2022-08-26T21:23:10.242Z,27.90
2022-08-26T21:25:37.108Z,27.90
2022-08-26T21:28:04.039Z,27.80
2022-08-26T21:30:30.799Z,27.80
2022-08-26T21:32:57.806Z,27.80
2022-08-26T21:35:24.635Z,27.80
2022-08-26T21:37:51.463Z,27.70
2022-08-26T21:40:18.374Z,27.70
2022-08-26T21:42:45.272Z,27.70
2022-08-26T21:45:12.093Z,27.70
2022-08-26T21:47:39.573Z,27.70
2022-08-26T21:50:07.159Z,27.50
2022-08-26T21:52:34.301Z,27.50
2022-08-26T21:55:01.960Z,27.50
2022-08-26T21:57:29.504Z,27.50
2022-08-26T21:59:56.630Z,27.50
2022-08-26T22:02:23.997Z,27.50
2022-08-26T22:04:50.887Z,27.40
2022-08-26T22:07:19.074Z,27.30
2022-08-26T22:09:46.194Z,27.30
2022-08-26T22:12:13.436Z,27.30
2022-08-26T22:14:40.181Z,27.20
2022-08-26T22:17:07.132Z,27.20
2022-08-26T22:19:34.507Z,27.20
2022-08-26T22:22:13.105Z,27.10
2022-08-26T22:24:39.991Z,27.10
2022-08-26T22:27:06.999Z,27.00
2022-08-26T22:29:33.766Z,27.00
2022-08-26T22:32:01.171Z,26.90
2022-08-26T22:34:28.147Z,26.90
2022-08-26T22:36:55.596Z,26.90
2022-08-26T22:39:23.998Z,26.90
2022-08-26T22:41:51.480Z,26.80
2022-08-26T22:44:19.130Z,26.80
2022-08-26T22:46:46.595Z,26.80
2022-08-26T22:49:16.438Z,26.80
2022-08-26T22:51:44.120Z,26.80
2022-08-26T22:54:10.971Z,26.70
2022-08-26T22:56:38.256Z,26.70
2022-08-26T22:59:06.800Z,26.70
2022-08-26T23:01:35.643Z,26.70
2022-08-26T23:04:02.860Z,26.70
2022-08-26T23:06:29.991Z,26.70
2022-08-26T23:08:56.838Z,26.60
2022-08-26T23:11:23.675Z,26.60
2022-08-26T23:13:50.714Z,26.60
2022-08-26T23:16:17.693Z,26.60
2022-08-26T23:18:44.551Z,26.60
2022-08-26T23:21:11.705Z,26.50
2022-08-26T23:23:38.633Z,26.50
2022-08-26T23:26:06.455Z,26.50
2022-08-26T23:28:34.079Z,26.40
2022-08-26T23:31:00.894Z,26.40
2022-08-26T23:33:47.841Z,26.30
2022-08-26T23:36:18.178Z,26.30
2022-08-26T23:38:48.550Z,26.30
2022-08-26T23:41:22.233Z,26.20
2022-08-26T23:43:49.747Z,26.20
2022-08-26T23:46:16.728Z,26.00
2022-08-26T23:48:43.842Z,26.10
2022-08-26T23:51:29.384Z,26.00
2022-08-26T23:53:56.308Z,25.90
2022-08-26T23:56:23.163Z,25.90
2022-08-26T23:58:50.412Z,25.90
